Pays
Station

 

Conditions  météo  pour  San Diego, Brown Field Municipal Airport  -  Etats-Unis    Etats-Unis

  
21 °C
    
 
 

METAR pour San Diego, Brown Field Municipal Airport :

KSDM 172353Z 25008KT 10SM SCT012 21/17 A2997 RMK AO2 SLP145 T02110172 10261 20211 50002

 

Voici le bulletin pour San Diego, Brown Field Municipal Airport - Etats-Unis.
 
Le bulletin a été fait il y a 49 minutes, à 23:53 UTC .
Le vent soufflait à la vitesse de 4.1 mètres par seconde de Ouest/Sud-ouest (250°).
 
La température était de 21 °C, avec un point de rosée à 17 °C.
La pression atmosphérique était de 1015 hPa.
L'humidité relative était de 77.9%.
 
Il y avait 3 à 4/8ème de nébulosité à une hauteur de 366 mètres.
 
La visibilité globale était de 16.1 kilomètres.
 

 
 
 

Pays :   A   B   C   D   E   F   G   H   I   J   K   L   M   N   O   P   Q   R   S   T   U   V   W   Y   Z

 

Partenaires :  Info Météo avec Met'info
Météo Marine avec MeteoMarine.net
Infos Site  |  Infos Légales  |  Crédits  |  Confidentialité
Contactez-nous  |  Ajouter aux favoris
© 2013-2018 METAR - Tous droits réservés